Aérodrome :
LOGIN :

S'inscrire | Disclaimer

   EN    FR    IT 

 










Légende :    VFR   VFR Marginal   IFR   IFR Intensif   IFR Très Intensif
Visi : 
Plafond : 
>= 8 km
>= 3000ft
5 à 8 km
1000 à 3000 ft
1500m à 5 km
500 à 1000 ft
800 à 1500m
200 à 500 ft
< 800m
< 200 ft
Symboles :   Orages  Brouillard  Fortes neiges  Fortes précipitations  Vent > 20 kt
SIGMETs :   Divers  Orages  Givrage  Turbulence  Onde Orograph.  Cendres Volcan.







- Altitude de l'aérodrome : 302 ft
- Code IATA : CGN


EDDK - Cologne Bonn

DERNIER METAR :
  • 240820Z 34007KT 300V010 9999 FEW020 BKN100 BKN230 16/10 Q1023 NOSIG

METARs EXPIRÉS :
  • 240750Z 31003KT 240V040 9999 FEW018 SCT100 BKN230 16/11 Q1023 NOSIG
  • 240720Z 33004KT 300V030 9999 FEW015 SCT120 BKN230 15/11 Q1023 NOSIG
  • 240650Z 34003KT 300V360 9999 FEW020 BKN120 BKN230 15/11 Q1023 NOSIG
  • 240620Z 33003KT 290V360 CAVOK 14/11 Q1023 NOSIG
  • 240550Z VRB01KT CAVOK 13/11 Q1023 NOSIG

TAF TAF EDDK
Valide du 24 à 06h jusqu'au 25 à 12h UTC


240500Z 2406/2512 VRB03KT 9999 BKN040
BECMG 2406/2410 32006KT
TEMPO 2502/2507 BKN012
Pas de NOTAMs connus pour ce terrain.



MET'MAP, la Météo Aéronautique d'un coup d'oeil ! - Copyright ORBIFLY Décembre 2007 - Disclaimer

ORBIFLY MET'MAP TEAM :

Programmation & Développement : Alexandra Zaïnal
Conception & Développement : Baudouin d'Aumeries
Co-Programmation & Développement : Marc-Olivier Méhu
Soutien technique & logistique : Manuel Goepfert

Contact : metmap@orbifly.com




SOURCES & CREDITS :

   NOAA